createdAt,value
2022-09-12T06:09:16.511Z,100887.28
2022-09-12T06:11:46.064Z,100886.88
2022-09-12T06:14:17.631Z,100894.53
2022-09-12T06:16:47.409Z,100896.53
2022-09-12T06:19:18.021Z,100894.94
2022-09-12T06:21:47.836Z,100887.63
2022-09-12T06:24:16.357Z,100887.22
2022-09-12T06:26:47.620Z,100889.66
2022-09-12T06:29:16.502Z,100899.75
2022-09-12T06:31:45.042Z,100898.13
2022-09-12T06:34:14.659Z,100894.06
2022-09-12T06:36:47.704Z,100895.69
2022-09-12T06:39:18.775Z,100879.91
2022-09-12T06:41:47.232Z,100888.38
2022-09-12T06:44:18.829Z,100886.78
2022-09-12T06:46:53.005Z,100877.81
2022-09-12T06:49:26.878Z,100890.44
2022-09-12T06:51:55.163Z,100883.56
2022-09-12T06:54:23.771Z,100885.97
2022-09-12T06:56:55.091Z,100887.16
2022-09-12T06:59:25.087Z,100887.16
2022-09-12T07:01:56.348Z,100883.88
2022-09-12T07:04:27.024Z,100880.31
2022-09-12T07:06:54.958Z,100883.13
2022-09-12T07:09:31.002Z,100879.13
2022-09-12T07:11:59.755Z,100885.00
2022-09-12T07:14:30.905Z,100885.88
2022-09-12T07:17:02.840Z,100885.16
2022-09-12T07:19:36.410Z,100882.66
2022-09-12T07:22:04.463Z,100882.31
2022-09-12T07:24:35.634Z,100882.72
2022-09-12T07:27:03.506Z,100876.94
2022-09-12T07:29:38.781Z,100892.78
2022-09-12T07:32:07.281Z,100884.69
2022-09-12T07:34:39.354Z,100885.09
2022-09-12T07:37:07.971Z,100886.69
2022-09-12T07:39:36.534Z,100883.88
2022-09-12T07:42:04.823Z,100880.66
2022-09-12T07:44:35.658Z,100882.28
2022-09-12T07:47:07.175Z,100885.09
2022-09-12T07:49:37.782Z,100886.31
2022-09-12T07:52:09.225Z,100889.59
2022-09-12T07:54:41.581Z,100894.84
2022-09-12T07:57:10.173Z,100884.25
2022-09-12T07:59:52.485Z,100889.59
2022-09-12T08:02:20.920Z,100884.72
2022-09-12T08:04:49.322Z,100889.59
2022-09-12T08:07:18.543Z,100894.06
2022-09-12T08:09:48.959Z,100901.69
2022-09-12T08:12:18.011Z,100907.38
2022-09-12T08:14:46.223Z,100907.41
2022-09-12T08:17:17.079Z,100909.00
2022-09-12T08:19:50.121Z,100903.72
2022-09-12T08:22:23.451Z,100904.97
2022-09-12T08:24:54.665Z,100905.00
2022-09-12T08:27:25.619Z,100902.44
2022-09-12T08:29:56.936Z,100904.53
2022-09-12T08:32:27.506Z,100907.31
2022-09-12T08:34:55.523Z,100900.38
2022-09-12T08:37:26.166Z,100899.50
2022-09-12T08:39:56.405Z,100903.94
2022-09-12T08:42:56.276Z,100903.19
2022-09-12T08:45:43.401Z,100902.28
2022-09-12T08:48:12.918Z,100904.72
2022-09-12T08:50:49.339Z,100906.41
2022-09-12T08:53:23.769Z,100899.00
2022-09-12T08:55:58.718Z,100899.78
2022-09-12T08:58:41.289Z,100909.16
2022-09-12T09:01:31.578Z,100910.84
2022-09-12T09:04:50.460Z,100903.94
2022-09-12T09:07:57.135Z,100904.75
2022-09-12T09:10:53.037Z,100902.84
2022-09-12T09:14:09.744Z,100907.56
2022-09-12T09:16:46.150Z,100908.41
2022-09-12T09:19:24.114Z,100893.03
2022-09-12T09:22:03.732Z,100892.72
2022-09-12T09:24:42.380Z,100897.53
2022-09-12T09:27:39.774Z,100890.63
2022-09-12T09:30:21.454Z,100890.25
2022-09-12T09:32:57.087Z,100902.06
2022-09-12T09:35:49.068Z,100895.59
2022-09-12T09:38:25.500Z,100895.63
2022-09-12T09:41:08.661Z,100898.03
2022-09-12T09:43:38.210Z,100894.38
2022-09-12T09:46:07.167Z,100900.06
2022-09-12T09:48:54.274Z,100891.19
2022-09-12T09:51:28.178Z,100897.25
2022-09-12T09:54:04.050Z,100894.44
2022-09-12T09:56:36.164Z,100896.06
2022-09-12T09:59:18.192Z,100896.50
2022-09-12T10:02:06.856Z,100896.50
2022-09-12T10:04:41.616Z,100903.81
2022-09-12T10:07:19.918Z,100896.53
2022-09-12T10:10:14.413Z,100895.31
2022-09-12T10:12:46.270Z,100892.91
2022-09-12T10:15:35.337Z,100890.47
2022-09-12T10:18:06.096Z,100895.75
2022-09-12T10:20:47.817Z,100893.31
2022-09-12T10:23:36.291Z,100893.72
2022-09-12T10:26:15.132Z,100891.72
2022-09-12T10:28:54.246Z,100886.88
2022-09-12T10:31:35.425Z,100888.06
2022-09-12T10:34:19.483Z,100884.84
2022-09-12T10:36:47.747Z,100881.59
2022-09-12T10:39:22.626Z,100875.09
2022-09-12T10:41:55.182Z,100873.50
2022-09-12T10:44:31.152Z,100872.69
2022-09-12T10:47:36.195Z,100876.75
2022-09-12T10:50:41.350Z,100873.13
2022-09-12T10:53:34.649Z,100871.47
2022-09-12T10:56:10.247Z,100869.84
2022-09-12T10:59:00.361Z,100867.44
2022-09-12T11:01:42.015Z,100868.66
2022-09-12T11:04:37.167Z,100860.56
2022-09-12T11:07:31.822Z,100860.56
2022-09-12T11:10:28.978Z,100851.63
2022-09-12T11:13:21.884Z,100857.72
2022-09-12T11:16:33.583Z,100849.63
2022-09-12T11:19:28.955Z,100855.31
2022-09-12T11:22:22.140Z,100849.63
2022-09-12T11:25:12.025Z,100848.81
2022-09-12T11:27:55.592Z,100849.25
2022-09-12T11:30:28.939Z,100845.19
2022-09-12T11:33:07.790Z,100843.16
2022-09-12T11:35:55.249Z,100844.38
2022-09-12T11:38:41.461Z,100845.19
2022-09-12T11:41:25.280Z,100845.19
2022-09-12T11:43:59.537Z,100850.44
2022-09-12T11:46:37.025Z,100850.44
2022-09-12T11:49:22.646Z,100848.41
2022-09-12T11:52:06.336Z,100844.78
2022-09-12T11:54:43.052Z,100827.78
2022-09-12T11:57:28.414Z,100833.03
2022-09-12T12:00:06.856Z,100825.78
2022-09-12T12:03:09.924Z,100823.34
2022-09-12T12:05:48.147Z,100816.03
2022-09-12T12:08:23.415Z,100821.69
2022-09-12T12:11:00.176Z,100826.56
2022-09-12T12:13:52.155Z,100818.03
2022-09-12T12:16:33.462Z,100812.78
2022-09-12T12:19:34.627Z,100820.50
2022-09-12T12:22:17.131Z,100808.75
2022-09-12T12:25:08.378Z,100812.78
2022-09-12T12:28:01.548Z,100803.09
2022-09-12T12:30:37.999Z,100804.31
2022-09-12T12:33:13.340Z,100803.47
2022-09-12T12:36:02.648Z,100798.19
2022-09-12T12:38:34.309Z,100797.41
2022-09-12T12:41:19.830Z,100795.38
2022-09-12T12:43:56.451Z,100792.53
2022-09-12T12:46:31.779Z,100792.53
2022-09-12T12:49:30.517Z,100786.91
2022-09-12T12:52:06.488Z,100794.56
2022-09-12T12:54:52.044Z,100782.03
2022-09-12T12:57:28.271Z,100780.41
2022-09-12T13:00:07.156Z,100786.88
2022-09-12T13:03:11.688Z,100774.72
2022-09-12T13:05:51.578Z,100778.38
2022-09-12T13:08:44.800Z,100772.75
2022-09-12T13:11:30.949Z,100769.88
2022-09-12T13:14:04.527Z,100768.66
2022-09-12T13:16:52.338Z,100759.38
2022-09-12T13:19:32.747Z,100765.03
2022-09-12T13:22:04.019Z,100754.09
2022-09-12T13:24:42.404Z,100748.41
2022-09-12T13:27:25.807Z,100757.31
2022-09-12T13:30:14.468Z,100744.78
2022-09-12T13:32:50.976Z,100743.97
2022-09-12T13:35:47.211Z,100733.88
2022-09-12T13:38:55.794Z,100729.78
2022-09-12T13:41:26.787Z,100728.16
2022-09-12T13:43:57.698Z,100726.56
2022-09-12T13:46:31.586Z,100716.88
2022-09-12T13:49:10.348Z,100707.94
2022-09-12T13:51:43.482Z,100717.25
2022-09-12T13:54:24.307Z,100712.78
2022-09-12T13:56:55.330Z,100715.22
2022-09-12T13:59:26.410Z,100720.47
2022-09-12T14:02:02.393Z,100713.25
2022-09-12T14:04:55.036Z,100704.31
2022-09-12T14:07:26.594Z,100698.25
2022-09-12T14:10:01.334Z,100697.84
2022-09-12T14:12:40.362Z,100703.50
2022-09-12T14:15:27.418Z,100691.75
2022-09-12T14:18:01.311Z,100697.03
2022-09-12T14:20:36.319Z,100692.97
2022-09-12T14:23:30.348Z,100696.22
2022-09-12T14:26:00.325Z,100683.25
2022-09-12T14:28:29.205Z,100679.63
2022-09-12T14:31:22.774Z,100677.59
2022-09-12T14:33:53.983Z,100678.41
2022-09-12T14:36:34.594Z,100678.00
2022-09-12T14:39:06.904Z,100678.41
2022-09-12T14:41:41.508Z,100673.94
2022-09-12T14:44:25.349Z,100667.91
2022-09-12T14:46:53.374Z,100666.25
2022-09-12T14:49:27.796Z,100667.88
2022-09-12T14:52:06.059Z,100666.25
2022-09-12T14:54:42.753Z,100660.56
2022-09-12T14:57:34.848Z,100657.38
2022-09-12T15:00:23.423Z,100653.72
2022-09-12T15:02:55.072Z,100645.59
2022-09-12T15:05:28.535Z,100650.88
2022-09-12T15:08:01.167Z,100651.28
2022-09-12T15:10:37.798Z,100652.09
2022-09-12T15:13:17.392Z,100648.84
2022-09-12T15:16:16.987Z,100653.31
2022-09-12T15:18:50.038Z,100651.69
2022-09-12T15:21:21.481Z,100656.94
2022-09-12T15:23:54.159Z,100645.59
2022-09-12T15:26:27.983Z,100653.72
2022-09-12T15:28:58.152Z,100644.41
2022-09-12T15:31:34.955Z,100637.91
2022-09-12T15:34:04.891Z,100638.72
2022-09-12T15:36:36.196Z,100643.56
2022-09-12T15:39:03.953Z,100637.91
2022-09-12T15:41:37.189Z,100639.53
2022-09-12T15:44:09.014Z,100645.22
2022-09-12T15:46:47.636Z,100638.34
2022-09-12T15:49:18.745Z,100638.72
2022-09-12T15:51:54.870Z,100637.91
2022-09-12T15:54:28.687Z,100636.31
2022-09-12T15:56:59.652Z,100625.00
2022-09-12T15:59:32.807Z,100632.28
2022-09-12T16:02:03.920Z,100628.59
2022-09-12T16:04:34.836Z,100624.16
2022-09-12T16:07:05.797Z,100620.91
2022-09-12T16:09:37.053Z,100624.16
2022-09-12T16:12:05.164Z,100628.13
2022-09-12T16:14:44.900Z,100626.44
2022-09-12T16:17:20.571Z,100621.56
2022-09-12T16:19:57.756Z,100613.09
2022-09-12T16:22:28.101Z,100612.72
2022-09-12T16:24:55.749Z,100608.59
2022-09-12T16:27:26.362Z,100612.28
2022-09-12T16:29:57.803Z,100612.28
2022-09-12T16:32:27.051Z,100611.88
2022-09-12T16:35:03.576Z,100614.34
2022-09-12T16:37:36.161Z,100619.19
2022-09-12T16:40:05.687Z,100608.88
2022-09-12T16:42:36.045Z,100605.16
2022-09-12T16:45:03.723Z,100608.66
2022-09-12T16:47:34.605Z,100610.59
2022-09-12T16:50:02.108Z,100604.44
2022-09-12T16:52:31.265Z,100606.84
2022-09-12T16:55:04.666Z,100608.84
2022-09-12T16:57:32.806Z,100612.84
2022-09-12T17:00:03.878Z,100605.97
2022-09-12T17:02:31.403Z,100608.75
2022-09-12T17:05:05.560Z,100607.91
2022-09-12T17:07:34.223Z,100608.72
2022-09-12T17:10:01.821Z,100616.78
2022-09-12T17:12:35.289Z,100606.63
2022-09-12T17:15:04.364Z,100615.16
2022-09-12T17:17:32.082Z,100619.19
2022-09-12T17:20:02.640Z,100608.63
2022-09-12T17:22:30.151Z,100615.91
2022-09-12T17:25:00.695Z,100611.88
2022-09-12T17:27:33.417Z,100624.03
2022-09-12T17:30:04.446Z,100631.31
2022-09-12T17:32:34.662Z,100617.13
2022-09-12T17:35:05.426Z,100621.63
2022-09-12T17:37:36.334Z,100622.41
2022-09-12T17:40:04.387Z,100626.06
2022-09-12T17:42:36.230Z,100621.97
2022-09-12T17:45:07.638Z,100615.91
2022-09-12T17:47:35.127Z,100622.38
2022-09-12T17:50:30.458Z,100626.00
2022-09-12T17:52:58.912Z,100627.66
2022-09-12T17:55:27.458Z,100635.34
2022-09-12T17:57:59.326Z,100628.41
2022-09-12T18:00:46.812Z,100632.09
2022-09-12T18:03:22.925Z,100640.63
2022-09-12T18:05:56.151Z,100636.53
2022-09-12T18:08:24.561Z,100647.09
2022-09-12T18:10:55.356Z,100649.50
2022-09-12T18:13:27.006Z,100650.31
2022-09-12T18:16:14.551Z,100656.81
2022-09-12T18:18:47.821Z,100654.78
2022-09-12T18:21:19.886Z,100660.00
2022-09-12T18:23:53.228Z,100669.34
2022-09-12T18:26:20.916Z,100673.38
2022-09-12T18:28:51.718Z,100665.28
2022-09-12T18:31:22.028Z,100660.00
2022-09-12T18:33:51.534Z,100669.72
2022-09-12T18:36:20.366Z,100675.41
2022-09-12T18:38:50.720Z,100682.69
2022-09-12T18:41:25.561Z,100685.13
2022-09-12T18:43:57.982Z,100685.09
2022-09-12T18:46:30.014Z,100685.94
2022-09-12T18:49:01.922Z,100684.69
2022-09-12T18:51:32.980Z,100692.41
2022-09-12T18:54:06.703Z,100698.84
2022-09-12T18:56:41.078Z,100689.53
2022-09-12T18:59:10.394Z,100691.56
2022-09-12T19:01:41.421Z,100691.19
2022-09-12T19:04:12.088Z,100698.84
2022-09-12T19:06:42.671Z,100695.22
2022-09-12T19:09:14.156Z,100698.53
2022-09-12T19:11:48.975Z,100704.97
2022-09-12T19:14:22.888Z,100704.13
2022-09-12T19:16:52.183Z,100703.38
2022-09-12T19:19:23.680Z,100707.41
2022-09-12T19:21:55.077Z,100707.38
2022-09-12T19:24:25.722Z,100708.22
2022-09-12T19:26:56.968Z,100707.00
2022-09-12T19:29:24.676Z,100710.66
2022-09-12T19:31:57.418Z,100709.03
2022-09-12T19:34:27.370Z,100707.38
2022-09-12T19:36:59.497Z,100711.47
2022-09-12T19:39:31.818Z,100711.06
2022-09-12T19:42:04.766Z,100709.41
2022-09-12T19:44:35.923Z,100705.38
2022-09-12T19:47:03.958Z,100706.97
2022-09-12T19:49:31.940Z,100709.78
2022-09-12T19:52:05.787Z,100714.66
2022-09-12T19:54:38.923Z,100712.22
2022-09-12T19:57:09.264Z,100716.31
2022-09-12T19:59:39.829Z,100716.31
2022-09-12T20:02:10.920Z,100723.22
2022-09-12T20:04:41.977Z,100726.44
2022-09-12T20:07:14.732Z,100727.22
2022-09-12T20:09:45.216Z,100732.50
2022-09-12T20:12:14.596Z,100742.22
2022-09-12T20:14:43.119Z,100740.22
2022-09-12T20:17:13.658Z,100743.06
2022-09-12T20:19:44.374Z,100741.84
2022-09-12T20:22:15.598Z,100747.50
2022-09-12T20:24:43.441Z,100748.31
2022-09-12T20:27:13.874Z,100746.28
2022-09-12T20:29:41.502Z,100750.75
2022-09-12T20:32:12.184Z,100752.34
2022-09-12T20:34:39.945Z,100750.75
2022-09-12T20:37:10.385Z,100754.44
2022-09-12T20:39:41.446Z,100750.75
2022-09-12T20:42:12.141Z,100748.72
2022-09-12T20:44:42.754Z,100756.41
2022-09-12T20:47:13.281Z,100749.50
2022-09-12T20:49:43.878Z,100747.09
2022-09-12T20:52:16.751Z,100751.56
2022-09-12T20:54:50.729Z,100751.56
2022-09-12T20:57:21.508Z,100757.63
2022-09-12T20:59:52.249Z,100769.00
2022-09-12T21:02:20.784Z,100758.44
2022-09-12T21:04:51.912Z,100760.47
2022-09-12T21:07:25.039Z,100758.00
2022-09-12T21:09:55.265Z,100759.19
2022-09-12T21:12:31.189Z,100752.69
2022-09-12T21:15:04.542Z,100755.91
2022-09-12T21:17:32.253Z,100761.16
2022-09-12T21:20:08.026Z,100762.75
2022-09-12T21:22:39.121Z,100762.72
2022-09-12T21:25:07.578Z,100770.41
2022-09-12T21:27:35.424Z,100765.13
2022-09-12T21:30:09.602Z,100766.72
2022-09-12T21:32:40.911Z,100764.69
2022-09-12T21:35:14.288Z,100759.78
2022-09-12T21:37:45.024Z,100765.03
2022-09-12T21:40:21.816Z,100765.84
2022-09-12T21:42:52.301Z,100767.88
2022-09-12T21:45:22.986Z,100764.69
2022-09-12T21:47:51.111Z,100766.66
2022-09-12T21:50:23.818Z,100768.31
2022-09-12T21:52:56.642Z,100759.78
2022-09-12T21:55:30.396Z,100767.50
2022-09-12T21:58:03.868Z,100754.06
2022-09-12T22:00:34.947Z,100769.50
2022-09-12T22:03:06.103Z,100761.00
2022-09-12T22:05:34.565Z,100767.13
2022-09-12T22:08:05.122Z,100768.69
2022-09-12T22:10:32.883Z,100770.72
2022-09-12T22:13:03.349Z,100769.50
2022-09-12T22:15:41.274Z,100765.44
2022-09-12T22:18:11.771Z,100754.06
2022-09-12T22:20:43.314Z,100754.06
2022-09-12T22:23:32.515Z,100748.38
2022-09-12T22:26:04.230Z,100757.72
2022-09-12T22:28:35.939Z,100757.31
2022-09-12T22:31:03.617Z,100755.28
2022-09-12T22:33:31.776Z,100753.25
2022-09-12T22:36:00.459Z,100748.78
2022-09-12T22:38:33.242Z,100750.78
2022-09-12T22:41:07.863Z,100747.94
2022-09-12T22:43:37.252Z,100747.97
2022-09-12T22:46:15.085Z,100750.38
2022-09-12T22:48:47.903Z,100747.09
2022-09-12T22:51:20.900Z,100745.91
2022-09-12T22:53:52.198Z,100744.69
2022-09-12T22:56:22.695Z,100742.63
2022-09-12T22:58:53.129Z,100750.75
2022-09-12T23:01:21.746Z,100743.06
2022-09-12T23:03:56.499Z,100745.06
2022-09-12T23:06:27.790Z,100747.09
2022-09-12T23:08:56.391Z,100742.63
2022-09-12T23:11:32.192Z,100741.09
2022-09-12T23:14:02.949Z,100745.13
2022-09-12T23:16:32.324Z,100747.19
2022-09-12T23:19:04.287Z,100736.66
2022-09-12T23:21:34.683Z,100743.59
2022-09-12T23:24:06.203Z,100736.25
2022-09-12T23:26:37.061Z,100742.81
2022-09-12T23:29:10.550Z,100739.97
2022-09-12T23:31:40.860Z,100740.38
2022-09-12T23:34:10.822Z,100733.50
2022-09-12T23:36:44.144Z,100738.00
2022-09-12T23:39:11.820Z,100742.06
2022-09-12T23:41:42.842Z,100733.53
2022-09-12T23:44:13.250Z,100735.19
2022-09-12T23:46:40.877Z,100730.34
2022-09-12T23:49:11.403Z,100725.50
2022-09-12T23:51:41.749Z,100732.78
2022-09-12T23:54:09.641Z,100722.66
2022-09-12T23:56:43.730Z,100729.13
2022-09-12T23:59:11.463Z,100729.94
